Aviation Digital Data Service (ADDS)

Output produced by METARs form (1429 UTC 30 June 2015)
found at http://aviationweather.gov/adds/metars/
 
KFNT 301120Z 3012/0112 VRB03KT P6SM OVC024 
     FM301500 25006KT P6SM BKN040 
     TEMPO 3019/3022 4SM TSRA OVC028CB 
     FM010100 28006KT P6SM BKN060 
     FM010700 30006KT P6SM OVC007